Lone Pine, Minnesota
Current Conditions -  °F | °C
As of 4:35 PM on Friday 31 Oct 2014 (Local Time) from KGPZ Reporting Station
Clear Clear  
Wind Chill: 37°   Ceiling: Unl
Heat Index: 37°   Visibility: 10mi
Dew Point: 12°   Wind: 0mph
Humidity: 36%   Direction: NA
Pressure: 30.48"   Gusts: NA
Location:  47.5025°N, 93.3734°W
Report Text: KGPZ 312135Z AUTO 00000KT 10SM CLR 03/M11 A3048 RMK AO1
Loading
Personal Weather Stations






























Interactive Weather Map
Tropical Storm Tracking
New forecast layout! Learn more

10-Day Weather Forecast

Advertisements
Track Severe Weather on mobile